createdAt,value
2022-12-01T00:01:28.832Z,123.65
2022-12-01T00:03:56.671Z,127.45
2022-12-01T00:06:23.373Z,123.40
2022-12-01T00:09:15.157Z,114.32
2022-12-01T00:11:44.774Z,122.78
2022-12-01T00:14:11.713Z,131.00
2022-12-01T00:16:40.395Z,110.35
2022-12-01T00:19:07.205Z,129.63
2022-12-01T00:21:33.823Z,115.32
2022-12-01T00:24:00.482Z,117.70
2022-12-01T00:26:30.065Z,117.15
2022-12-01T00:28:59.492Z,125.35
2022-12-01T00:31:27.634Z,119.50
2022-12-01T00:33:57.852Z,115.75
2022-12-01T00:36:24.755Z,111.82
2022-12-01T00:38:59.396Z,105.03
2022-12-01T00:41:26.430Z,117.15
2022-12-01T00:43:55.790Z,110.25
2022-12-01T00:46:22.400Z,103.32
2022-12-01T00:48:49.233Z,116.40
2022-12-01T00:51:15.916Z,107.53
2022-12-01T00:53:42.537Z,109.53
2022-12-01T00:56:09.192Z,116.97
2022-12-01T00:58:36.107Z,112.43
2022-12-01T01:01:03.670Z,112.90
2022-12-01T01:03:32.805Z,100.88
2022-12-01T01:06:12.973Z,109.18
2022-12-01T01:08:41.060Z,111.88
2022-12-01T01:11:09.792Z,105.43
2022-12-01T01:13:38.798Z,105.03
2022-12-01T01:16:20.971Z,111.45
2022-12-01T01:18:48.950Z,106.32
2022-12-01T01:21:23.485Z,100.72
2022-12-01T01:23:53.335Z,105.57
2022-12-01T01:26:28.687Z,104.93
2022-12-01T01:29:04.528Z,104.00
2022-12-01T01:31:31.557Z,109.53
2022-12-01T01:33:59.112Z,105.53
2022-12-01T01:36:27.059Z,101.07
2022-12-01T01:38:55.141Z,100.97
2022-12-01T01:41:24.334Z,104.47
2022-12-01T01:43:59.588Z,91.80
2022-12-01T01:46:35.145Z,99.45
2022-12-01T01:49:08.792Z,97.97
2022-12-01T01:51:55.293Z,91.47
2022-12-01T01:54:33.546Z,96.82
2022-12-01T01:57:04.818Z,93.53
2022-12-01T01:59:53.640Z,92.22
2022-12-01T02:02:20.367Z,92.90
2022-12-01T02:04:58.525Z,91.80
2022-12-01T02:07:25.490Z,97.72
2022-12-01T02:09:55.248Z,91.05
2022-12-01T02:13:03.595Z,90.22
2022-12-01T02:16:09.634Z,91.80
2022-12-01T02:19:38.518Z,81.93
2022-12-01T02:22:53.910Z,80.50
2022-12-01T02:29:06.050Z,82.80
2022-12-01T02:31:58.615Z,80.28
2022-12-01T02:34:44.212Z,86.35
2022-12-01T02:37:42.888Z,86.05
2022-12-01T02:40:31.521Z,81.53
2022-12-01T02:43:27.256Z,80.60
2022-12-01T02:46:26.938Z,75.60
2022-12-01T02:49:01.888Z,67.97
2022-12-01T02:51:36.951Z,74.65
2022-12-01T02:54:06.288Z,73.75
2022-12-01T02:56:32.974Z,75.70
2022-12-01T02:58:59.651Z,68.65
2022-12-01T03:01:57.166Z,70.05
2022-12-01T03:05:06.851Z,76.65
2022-12-01T03:07:57.547Z,73.32
2022-12-01T03:10:55.712Z,64.07
2022-12-01T03:13:55.108Z,74.03
2022-12-01T03:17:00.308Z,66.97
2022-12-01T03:19:44.510Z,65.30
2022-12-01T03:22:35.352Z,63.72
2022-12-01T03:25:05.367Z,66.60
2022-12-01T03:27:44.082Z,73.07
2022-12-01T03:30:18.213Z,74.80
2022-12-01T03:33:04.787Z,82.35
2022-12-01T03:35:45.070Z,70.88
2022-12-01T03:38:30.586Z,78.32
2022-12-01T03:41:13.062Z,80.00
2022-12-01T03:43:51.854Z,81.10
2022-12-01T03:46:41.095Z,83.43
2022-12-01T03:49:12.075Z,93.15
2022-12-01T03:52:02.230Z,88.60
2022-12-01T03:55:01.382Z,90.32
2022-12-01T03:57:45.557Z,87.80
2022-12-01T04:00:15.466Z,91.28
2022-12-01T04:02:44.915Z,78.28
2022-12-01T04:05:13.307Z,84.50
2022-12-01T04:07:40.985Z,90.45
2022-12-01T04:10:08.955Z,88.82
2022-12-01T04:12:35.747Z,81.13
2022-12-01T04:15:12.387Z,90.85
2022-12-01T04:17:43.434Z,90.63
2022-12-01T04:20:15.573Z,94.03
2022-12-01T04:22:42.610Z,97.68
2022-12-01T04:25:10.628Z,92.07
2022-12-01T04:27:38.659Z,91.78
2022-12-01T04:30:08.214Z,91.43
2022-12-01T04:32:43.853Z,86.18
2022-12-01T04:35:14.667Z,85.97
2022-12-01T04:37:41.443Z,89.50
2022-12-01T04:40:14.290Z,88.72
2022-12-01T04:42:40.976Z,89.70
2022-12-01T04:45:17.623Z,86.85
2022-12-01T04:47:44.267Z,87.50
2022-12-01T04:50:11.868Z,79.57
2022-12-01T04:52:38.551Z,82.60
2022-12-01T04:55:06.099Z,79.00
2022-12-01T04:57:32.758Z,81.38
2022-12-01T04:59:59.485Z,76.93
2022-12-01T05:02:26.266Z,78.82
2022-12-01T05:04:53.133Z,69.93
2022-12-01T05:07:19.738Z,72.90
2022-12-01T05:09:46.723Z,67.05
2022-12-01T05:12:13.787Z,66.63
2022-12-01T05:14:42.405Z,63.80
2022-12-01T05:17:09.047Z,56.80
2022-12-01T05:19:54.555Z,56.38
2022-12-01T05:22:42.557Z,57.63
2022-12-01T05:25:13.618Z,64.93
2022-12-01T05:27:40.550Z,60.45
2022-12-01T05:30:14.745Z,63.80
2022-12-01T05:32:41.402Z,60.22
2022-12-01T05:35:12.913Z,62.17
2022-12-01T05:37:39.616Z,68.72
2022-12-01T05:40:11.427Z,62.60
2022-12-01T05:42:38.233Z,65.25
2022-12-01T05:45:08.963Z,72.10
2022-12-01T06:09:05.025Z,83.22
2022-12-01T06:11:31.715Z,95.70
2022-12-01T06:38:12.303Z,91.70
2022-12-01T06:56:54.501Z,86.95
2022-12-01T07:34:27.861Z,82.38
2022-12-01T07:58:32.200Z,80.40
2022-12-01T08:35:53.756Z,88.20
2022-12-01T08:41:17.517Z,77.05
2022-12-01T08:44:01.806Z,83.47
2022-12-01T09:49:39.715Z,82.78
2022-12-01T09:52:20.110Z,78.85
2022-12-01T09:54:48.545Z,77.63
2022-12-01T10:03:47.473Z,85.43
2022-12-01T10:06:33.382Z,74.68
2022-12-01T10:09:27.540Z,81.47
2022-12-01T10:34:48.654Z,84.45
2022-12-01T11:08:39.635Z,68.82
2022-12-01T11:11:28.191Z,72.15
2022-12-01T11:13:57.852Z,72.32
2022-12-01T11:16:40.154Z,71.35
2022-12-01T11:19:34.664Z,67.07
2022-12-01T11:22:19.621Z,62.50
2022-12-01T11:24:55.388Z,60.10
2022-12-01T11:27:49.404Z,70.82
2022-12-01T11:30:30.443Z,60.93
2022-12-01T11:33:03.485Z,54.35
2022-12-01T11:35:36.285Z,59.53
2022-12-01T11:40:58.547Z,67.20
2022-12-01T11:43:37.161Z,66.47
2022-12-01T11:46:09.783Z,56.58
2022-12-01T11:48:36.914Z,59.97
2022-12-01T11:51:28.822Z,56.75
2022-12-01T11:54:26.391Z,67.43
2022-12-01T11:57:25.254Z,58.58
2022-12-01T11:59:44.448Z,64.63
2022-12-01T12:03:04.264Z,63.42
2022-12-01T12:05:52.802Z,65.20
2022-12-01T12:08:47.014Z,53.78
2022-12-01T12:11:46.590Z,59.90
2022-12-01T12:14:49.088Z,58.45
2022-12-01T12:17:51.166Z,54.40
2022-12-01T12:20:59.263Z,58.35
2022-12-01T12:24:08.090Z,57.03
2022-12-01T12:27:22.591Z,59.63
2022-12-01T12:30:36.656Z,65.22
2022-12-01T12:33:44.770Z,53.08
2022-12-01T12:36:46.845Z,52.88
2022-12-01T12:40:16.384Z,56.03
2022-12-01T12:43:22.750Z,56.95
2022-12-01T12:46:12.467Z,57.70
2022-12-01T12:49:24.714Z,56.03
2022-12-01T12:52:08.455Z,59.35
2022-12-01T12:54:53.555Z,60.67
2022-12-01T12:58:00.164Z,58.35
2022-12-01T13:00:29.934Z,54.42
2022-12-01T13:03:13.721Z,55.05
2022-12-01T13:06:01.898Z,68.40
2022-12-01T13:08:52.425Z,61.65
2022-12-01T13:11:30.468Z,62.50
2022-12-01T13:14:26.304Z,55.95
2022-12-01T13:17:31.107Z,60.53
2022-12-01T13:19:57.866Z,54.53
2022-12-01T13:22:35.124Z,54.70
2022-12-01T13:25:04.667Z,60.95
2022-12-01T13:27:40.369Z,62.92
2022-12-01T13:30:24.174Z,54.25
2022-12-01T13:33:09.638Z,52.00
2022-12-01T13:35:40.013Z,62.83
2022-12-01T13:38:34.622Z,52.15
2022-12-01T13:41:19.551Z,58.05
2022-12-01T13:44:23.219Z,60.42
2022-12-01T13:47:04.982Z,53.70
2022-12-01T13:50:36.595Z,48.58
2022-12-01T13:53:38.853Z,52.28
2022-12-01T13:56:17.550Z,58.08
2022-12-01T13:58:53.162Z,52.50
2022-12-01T14:01:20.002Z,50.83
2022-12-01T14:04:25.454Z,52.17
2022-12-01T14:07:34.104Z,51.13
2022-12-01T14:10:27.293Z,50.28
2022-12-01T14:13:02.143Z,54.17
2022-12-01T14:15:42.163Z,54.40
2022-12-01T14:18:18.053Z,47.05
2022-12-01T14:20:48.622Z,41.05
2022-12-01T14:23:36.117Z,40.40
2022-12-01T14:26:45.537Z,46.90
2022-12-01T14:29:45.510Z,47.65
2022-12-01T14:32:17.755Z,30.70
2022-12-01T14:34:45.499Z,46.38
2022-12-01T14:37:22.897Z,45.20
2022-12-01T14:40:15.553Z,42.83
2022-12-01T14:43:10.156Z,38.40
2022-12-01T14:45:59.460Z,41.55
2022-12-01T14:48:40.890Z,33.13
2022-12-01T14:51:32.224Z,43.75
2022-12-01T14:54:10.650Z,48.25
2022-12-01T14:56:38.970Z,45.78
2022-12-01T14:59:29.339Z,40.75
2022-12-01T15:02:09.101Z,44.45
2022-12-01T15:05:22.194Z,49.35
2022-12-01T15:07:58.863Z,42.00
2022-12-01T15:10:39.167Z,47.03
2022-12-01T15:13:40.954Z,47.97
2022-12-01T15:16:25.411Z,50.80
2022-12-01T15:18:53.310Z,42.65
2022-12-01T15:21:31.966Z,44.92
2022-12-01T15:24:20.115Z,39.42
2022-12-01T15:26:52.517Z,41.72
2022-12-01T15:29:47.096Z,44.30
2022-12-01T15:32:23.367Z,49.72
2022-12-01T15:34:55.912Z,48.47
2022-12-01T15:37:28.333Z,54.95
2022-12-01T15:40:47.820Z,45.15
2022-12-01T15:43:26.631Z,44.42
2022-12-01T15:46:03.154Z,43.00
2022-12-01T15:48:35.457Z,40.72
2022-12-01T15:51:15.255Z,50.65
2022-12-01T15:53:55.219Z,46.95
2022-12-01T15:56:40.031Z,47.03
2022-12-01T15:59:12.749Z,44.60
2022-12-01T16:01:43.769Z,46.55
2022-12-01T16:04:25.450Z,46.55
2022-12-01T16:07:09.789Z,42.20
2022-12-01T16:09:58.413Z,45.40
2022-12-01T16:12:38.048Z,43.60
2022-12-01T16:15:06.788Z,41.85
2022-12-01T16:17:58.049Z,43.65
2022-12-01T16:20:26.436Z,48.47
2022-12-01T16:23:09.915Z,48.20
2022-12-01T16:25:46.130Z,46.20
2022-12-01T16:28:32.819Z,47.95
2022-12-01T16:30:59.666Z,45.78
2022-12-01T16:33:32.444Z,48.85
2022-12-01T16:46:57.454Z,66.75
2022-12-01T17:41:32.140Z,60.17
2022-12-01T17:54:52.222Z,56.17
2022-12-01T18:30:01.420Z,63.30
2022-12-01T18:48:53.328Z,68.13
2022-12-01T18:51:24.041Z,65.72
2022-12-01T18:53:57.474Z,70.53
2022-12-01T19:07:19.228Z,72.20
2022-12-01T20:06:42.656Z,92.85
2022-12-01T20:17:15.875Z,93.13
2022-12-01T20:57:45.545Z,87.85
2022-12-01T21:00:17.273Z,83.90
2022-12-01T21:23:30.240Z,76.15
2022-12-01T21:39:36.660Z,77.82
2022-12-01T22:15:40.980Z,83.57
2022-12-01T22:20:49.275Z,81.20
2022-12-01T22:23:16.066Z,84.28
2022-12-01T22:25:43.089Z,78.30
2022-12-01T22:28:22.108Z,78.40
2022-12-01T22:30:48.870Z,76.40
2022-12-01T22:33:24.915Z,75.95
2022-12-01T22:35:52.960Z,74.97
2022-12-01T22:38:37.293Z,78.90
2022-12-01T22:41:14.252Z,73.55
2022-12-01T22:44:00.671Z,76.30
2022-12-01T22:46:41.703Z,67.88
2022-12-01T22:49:29.037Z,68.20
2022-12-01T22:52:30.296Z,62.70
2022-12-01T22:55:01.395Z,65.53
2022-12-01T22:57:34.759Z,61.15
2022-12-01T23:00:15.761Z,59.07
2022-12-01T23:02:42.833Z,60.95
2022-12-01T23:05:30.558Z,64.55
2022-12-01T23:07:57.584Z,63.80
2022-12-01T23:10:46.107Z,75.72
2022-12-01T23:13:29.980Z,70.70
2022-12-01T23:16:00.160Z,66.18
2022-12-01T23:18:33.472Z,71.00
2022-12-01T23:21:02.378Z,74.75
2022-12-01T23:23:36.994Z,79.50
2022-12-01T23:26:08.945Z,76.68
2022-12-01T23:28:41.345Z,74.18
2022-12-01T23:31:11.572Z,75.82
2022-12-01T23:33:38.485Z,77.90
2022-12-01T23:36:25.750Z,74.35
2022-12-01T23:39:07.124Z,79.25
2022-12-01T23:41:40.863Z,62.38
2022-12-01T23:44:46.019Z,70.35
2022-12-01T23:47:27.370Z,73.97
2022-12-01T23:50:13.962Z,82.50
2022-12-01T23:52:40.859Z,76.13
2022-12-01T23:55:27.092Z,75.60
2022-12-01T23:58:03.725Z,75.10
